Time;durP1;ratioP1;P1;durP2;ratioP2;P2;SDS_P1;SDS_P2;PMS_P1;PMS_P2;Temp;Humidity;BMP_temperature;BMP_pressure;BME280_temperature;BME280_humidity;BME280_pressure;Samples;Min_cycle;Max_cycle;Signal;HPM_P1;HPM_P2
2022/05/10 00:00:26;;;;;;;1.70;1.60;;;19.80;61.90;;;;;;5013402;28;20022;-74
2022/05/10 00:02:53;;;;;;;1.60;1.50;;;19.90;61.90;;;;;;5013389;28;20125;-74
2022/05/10 00:05:26;;;;;;;1.70;1.60;;;19.80;62.20;;;;;;5013690;28;20056;-74
2022/05/10 00:07:51;;;;;;;1.70;1.60;;;19.80;61.80;;;;;;4997756;28;20472;-74
2022/05/10 00:10:17;;;;;;;1.70;1.60;;;19.80;61.90;;;;;;5013382;28;20064;-74
2022/05/10 00:12:43;;;;;;;1.70;1.50;;;19.80;61.90;;;;;;5013542;28;20057;-74
2022/05/10 00:15:09;;;;;;;1.60;1.50;;;19.90;62.00;;;;;;5013149;28;20026;-75
2022/05/10 00:17:37;;;;;;;1.70;1.60;;;19.90;61.90;;;;;;5012724;28;20037;-74
2022/05/10 00:20:04;;;;;;;1.70;1.60;;;19.80;61.80;;;;;;4997192;28;20468;-74
2022/05/10 00:22:30;;;;;;;1.60;1.50;;;19.80;61.90;;;;;;4996877;28;20029;-74
2022/05/10 00:24:56;;;;;;;1.88;1.60;;;19.80;61.80;;;;;;5013170;28;20037;-74
2022/05/10 00:27:22;;;;;;;1.77;1.67;;;19.80;61.80;;;;;;5014101;28;20049;-74
2022/05/10 00:29:48;;;;;;;1.60;1.40;;;19.80;61.90;;;;;;5013041;28;20457;-75
2022/05/10 00:32:13;;;;;;;1.48;1.38;;;19.80;61.80;;;;;;5014255;28;20041;-74
2022/05/10 00:34:39;;;;;;;1.67;1.58;;;19.80;61.90;;;;;;4996835;28;20026;-74
2022/05/10 00:37:05;;;;;;;2.40;1.65;;;19.90;61.90;;;;;;4996644;28;20081;-74
2022/05/10 00:39:30;;;;;;;1.63;1.52;;;19.80;61.90;;;;;;4996542;28;20487;-74
2022/05/10 00:42:06;;;;;;;1.48;1.38;;;19.80;61.80;;;;;;5012759;28;20029;-74
2022/05/10 00:44:40;;;;;;;1.80;1.70;;;19.90;61.90;;;;;;5012262;28;20045;-74
2022/05/10 00:47:17;;;;;;;1.60;1.50;;;19.80;61.90;;;;;;4996917;28;20022;-74
2022/05/10 00:49:45;;;;;;;2.10;1.90;;;19.90;61.90;;;;;;5012814;28;20022;-74
2022/05/10 00:52:21;;;;;;;1.58;1.48;;;19.80;62.00;;;;;;5012775;28;20105;-75
2022/05/10 00:54:56;;;;;;;1.60;1.50;;;19.80;61.80;;;;;;4996631;28;20499;-74
2022/05/10 00:57:28;;;;;;;1.98;1.88;;;19.80;61.90;;;;;;5013780;28;20395;-74
2022/05/10 01:00:13;;;;;;;1.52;1.42;;;19.80;61.90;;;;;;5012396;28;20388;-75
2022/05/10 01:03:15;;;;;;;1.70;1.60;;;19.80;62.00;;;;;;5012445;28;20045;-74
2022/05/10 01:05:52;;;;;;;1.70;1.60;;;19.90;61.80;;;;;;5012387;28;20065;-74
2022/05/10 01:08:24;;;;;;;1.80;1.70;;;19.80;62.10;;;;;;4979918;28;20415;-74
2022/05/10 01:10:57;;;;;;;1.60;1.50;;;19.80;62.10;;;;;;5012321;28;20018;-74
2022/05/10 01:13:30;;;;;;;2.03;1.83;;;19.80;62.00;;;;;;5011964;28;20109;-74
2022/05/10 01:16:14;;;;;;;1.58;1.48;;;19.80;62.10;;;;;;5012385;28;20053;-75
2022/05/10 01:18:40;;;;;;;1.63;1.52;;;19.80;62.00;;;;;;4997819;28;20048;-74
2022/05/10 01:21:16;;;;;;;1.70;1.60;;;19.80;62.00;;;;;;4995691;28;20097;-74
2022/05/10 01:24:21;;;;;;;1.60;1.50;;;19.80;62.00;;;;;;5012210;28;20569;-75
2022/05/10 01:27:27;;;;;;;1.85;1.73;;;19.80;61.80;;;;;;5013087;28;20022;-74
2022/05/10 01:30:08;;;;;;;1.75;1.65;;;19.80;61.90;;;;;;5011676;28;20026;-74
2022/05/10 01:35:33;;;;;;;1.70;1.60;;;19.80;62.10;;;;;;4999002;28;20037;-74
2022/05/10 01:38:02;;;;;;;3.35;2.05;;;19.70;62.00;;;;;;4995828;28;20029;-74
2022/05/10 01:40:37;;;;;;;1.75;1.50;;;19.80;62.10;;;;;;4995748;28;20380;-75
2022/05/10 01:43:06;;;;;;;1.60;1.50;;;19.80;62.00;;;;;;5011368;28;20072;-74
2022/05/10 01:45:39;;;;;;;1.75;1.65;;;19.70;62.00;;;;;;4995507;28;20026;-74
2022/05/10 01:48:05;;;;;;;1.73;1.63;;;19.80;62.00;;;;;;5011743;28;20025;-74
2022/05/10 01:50:30;;;;;;;1.80;1.70;;;19.70;62.00;;;;;;4995342;28;20022;-74
2022/05/10 01:53:05;;;;;;;1.83;1.73;;;19.80;62.00;;;;;;5012968;28;20026;-74
2022/05/10 01:55:41;;;;;;;1.80;1.70;;;19.80;62.00;;;;;;5012900;28;20391;-74
2022/05/10 01:58:12;;;;;;;2.03;1.50;;;19.80;62.00;;;;;;4995719;28;20393;-74
2022/05/10 02:00:38;;;;;;;1.73;1.50;;;19.80;62.00;;;;;;5011691;28;20079;-74
2022/05/10 02:03:20;;;;;;;1.73;1.63;;;19.70;62.00;;;;;;5011370;28;20083;-74
2022/05/10 02:05:51;;;;;;;1.52;1.42;;;19.80;62.00;;;;;;4996505;28;20066;-74
2022/05/10 02:08:35;;;;;;;1.60;1.50;;;19.70;62.00;;;;;;5012744;28;20432;-75
2022/05/10 02:11:05;;;;;;;1.70;1.60;;;19.80;62.00;;;;;;5011399;28;20061;-74
2022/05/10 02:13:33;;;;;;;1.65;1.55;;;19.70;62.00;;;;;;4995315;28;20014;-74
2022/05/10 02:16:06;;;;;;;1.58;1.48;;;19.70;62.00;;;;;;4979255;28;20030;-74
2022/05/10 02:18:52;;;;;;;1.70;1.60;;;19.80;62.00;;;;;;4995368;28;20025;-74
2022/05/10 02:21:23;;;;;;;1.63;1.52;;;19.80;61.80;;;;;;4995437;28;20076;-75
2022/05/10 02:24:05;;;;;;;1.98;1.80;;;19.70;62.00;;;;;;4995662;28;20068;-74
2022/05/10 02:26:48;;;;;;;1.88;1.77;;;19.80;61.90;;;;;;5011241;28;20022;-74
2022/05/10 02:29:23;;;;;;;1.98;1.77;;;19.70;62.00;;;;;;4997090;28;20357;-74
2022/05/10 02:34:54;;;;;;;1.70;1.60;;;19.70;62.00;;;;;;5012684;28;20080;-75
2022/05/10 02:37:20;;;;;;;1.80;1.70;;;19.70;62.00;;;;;;5011442;28;20508;-74
2022/05/10 02:39:45;;;;;;;1.77;1.67;;;19.70;62.00;;;;;;5012446;28;20030;-74
2022/05/10 02:42:12;;;;;;;1.73;1.63;;;19.70;62.00;;;;;;5016024;28;20030;-74
2022/05/10 02:44:38;;;;;;;1.67;1.58;;;19.70;62.00;;;;;;4998670;28;20124;-75
2022/05/10 02:47:05;;;;;;;1.67;1.58;;;19.70;62.00;;;;;;5014899;28;20473;-74
2022/05/10 02:49:30;;;;;;;1.60;1.50;;;19.70;62.00;;;;;;5014937;28;20112;-74
2022/05/10 02:51:56;;;;;;;1.70;1.60;;;19.70;62.00;;;;;;4998762;28;20105;-74
2022/05/10 02:54:22;;;;;;;1.85;1.63;;;19.70;62.00;;;;;;5015841;28;20570;-74
2022/05/10 02:56:47;;;;;;;1.80;1.70;;;19.70;62.00;;;;;;5016122;28;20032;-74
2022/05/10 02:59:19;;;;;;;1.80;1.70;;;19.70;62.00;;;;;;4998571;28;20380;-74
2022/05/10 03:02:12;;;;;;;1.85;1.75;;;19.70;61.90;;;;;;5014572;28;20112;-75
2022/05/10 03:04:40;;;;;;;2.08;1.88;;;19.80;62.90;;;;;;5015081;28;20484;-74
2022/05/10 03:07:06;;;;;;;1.95;1.75;;;19.70;62.00;;;;;;4998681;28;20123;-74
2022/05/10 03:09:32;;;;;;;1.80;1.70;;;19.70;62.00;;;;;;5014280;28;20057;-74
2022/05/10 03:11:57;;;;;;;1.75;1.65;;;19.70;62.00;;;;;;5014639;28;20047;-74
2022/05/10 03:14:23;;;;;;;2.83;1.70;;;19.70;62.00;;;;;;5015538;28;20096;-74
2022/05/10 03:16:49;;;;;;;1.50;1.40;;;19.70;62.00;;;;;;4998026;28;20149;-74
2022/05/10 03:19:16;;;;;;;2.28;1.88;;;19.70;62.00;;;;;;5015660;28;20036;-74
2022/05/10 03:21:42;;;;;;;1.85;1.70;;;19.70;62.00;;;;;;5014352;28;20034;-75
2022/05/10 03:24:08;;;;;;;1.75;1.65;;;19.70;62.00;;;;;;5014233;28;20080;-74
2022/05/10 03:26:34;;;;;;;2.17;1.98;;;19.70;62.00;;;;;;4997819;28;20029;-74
2022/05/10 03:28:59;;;;;;;1.83;1.73;;;19.70;62.00;;;;;;5014318;28;20050;-74
2022/05/10 03:31:25;;;;;;;1.60;1.50;;;19.70;62.00;;;;;;5014226;28;20026;-75
2022/05/10 03:36:36;;;;;;;1.80;1.70;;;19.70;62.00;;;;;;5014223;28;20033;-74
2022/05/10 03:39:01;;;;;;;1.70;1.60;;;19.70;62.00;;;;;;4997578;28;20026;-74
2022/05/10 03:41:27;;;;;;;1.70;1.60;;;19.70;62.00;;;;;;4997602;28;20037;-74
2022/05/10 03:43:53;;;;;;;1.80;1.70;;;19.70;62.00;;;;;;5014755;28;20124;-74
2022/05/10 03:46:18;;;;;;;1.65;1.55;;;19.70;62.00;;;;;;5014975;28;20030;-74
2022/05/10 03:48:44;;;;;;;1.75;1.58;;;19.70;62.00;;;;;;5014907;28;20033;-74
2022/05/10 03:51:10;;;;;;;1.70;1.60;;;19.60;61.90;;;;;;5013182;28;20133;-74
2022/05/10 03:53:35;;;;;;;1.77;1.67;;;19.70;62.00;;;;;;5014902;28;20018;-74
2022/05/10 03:56:01;;;;;;;1.67;1.58;;;19.70;62.00;;;;;;5013760;28;20475;-74
2022/05/10 03:58:27;;;;;;;1.90;1.80;;;19.60;61.90;;;;;;5013711;28;20024;-74
2022/05/10 04:00:52;;;;;;;1.60;1.50;;;19.70;62.00;;;;;;5014792;28;20065;-74
2022/05/10 04:03:18;;;;;;;1.83;1.73;;;19.70;62.00;;;;;;5013548;28;20033;-74
2022/05/10 04:05:45;;;;;;;1.77;1.67;;;19.70;62.00;;;;;;5014609;28;20030;-74
2022/05/10 04:08:11;;;;;;;1.67;1.58;;;19.70;62.00;;;;;;5013567;28;20026;-74
2022/05/10 04:10:36;;;;;;;1.98;1.88;;;19.70;62.00;;;;;;5014743;28;20032;-74
2022/05/10 04:13:02;;;;;;;1.83;1.73;;;19.70;62.00;;;;;;5014574;28;20099;-74
2022/05/10 04:15:28;;;;;;;1.90;1.77;;;19.70;62.00;;;;;;5013163;28;20495;-74
2022/05/10 04:17:54;;;;;;;1.70;1.60;;;19.70;62.00;;;;;;5013342;28;20022;-74
2022/05/10 04:20:19;;;;;;;1.83;1.73;;;19.70;62.00;;;;;;5014591;28;20034;-74
2022/05/10 04:22:45;;;;;;;1.90;1.77;;;19.70;62.00;;;;;;5013084;28;20033;-74
2022/05/10 04:25:11;;;;;;;1.85;1.67;;;19.60;61.90;;;;;;4996900;28;20022;-74
2022/05/10 04:27:37;;;;;;;1.88;1.70;;;19.60;61.90;;;;;;5013135;28;20104;-74
2022/05/10 04:30:04;;;;;;;1.83;1.73;;;19.60;61.90;;;;;;5013100;28;20026;-74
2022/05/10 04:32:30;;;;;;;1.60;1.50;;;19.60;61.90;;;;;;4996929;28;20545;-74
2022/05/10 04:34:55;;;;;;;1.63;1.52;;;19.60;61.90;;;;;;5014039;28;20026;-74
2022/05/10 04:37:21;;;;;;;1.92;1.83;;;19.60;61.90;;;;;;5012839;28;20404;-74
2022/05/10 04:42:31;;;;;;;1.88;1.77;;;19.60;61.90;;;;;;5013594;28;20155;-74
2022/05/10 04:44:56;;;;;;;2.13;1.70;;;19.60;62.00;;;;;;5013819;28;20084;-74
2022/05/10 04:47:22;;;;;;;2.45;1.50;;;19.60;62.00;;;;;;5012832;28;20108;-75
2022/05/10 04:49:47;;;;;;;1.88;1.70;;;19.60;61.90;;;;;;5013697;28;20512;-75
2022/05/10 04:52:13;;;;;;;1.73;1.58;;;19.60;62.00;;;;;;5013793;28;20125;-74
2022/05/10 04:54:40;;;;;;;2.22;1.75;;;19.60;61.90;;;;;;5012686;28;20120;-74
2022/05/10 04:57:06;;;;;;;1.77;1.67;;;19.60;61.90;;;;;;5012635;28;20022;-74
2022/05/10 04:59:31;;;;;;;1.88;1.77;;;19.60;61.90;;;;;;5013755;28;20034;-74
2022/05/10 05:01:57;;;;;;;1.77;1.67;;;19.60;61.90;;;;;;5013808;28;20033;-75
2022/05/10 05:04:22;;;;;;;1.58;1.48;;;19.60;62.00;;;;;;5012239;28;20028;-74
2022/05/10 05:06:50;;;;;;;1.48;1.38;;;19.60;61.90;;;;;;5013539;28;20027;-74
2022/05/10 05:09:16;;;;;;;1.52;1.42;;;19.60;61.90;;;;;;5013557;28;20044;-75
2022/05/10 05:11:42;;;;;;;1.55;1.45;;;19.60;61.90;;;;;;5012375;28;20544;-75
2022/05/10 05:14:10;;;;;;;1.45;1.35;;;19.60;61.90;;;;;;5013412;28;20026;-74
2022/05/10 05:16:36;;;;;;;1.60;1.50;;;19.60;61.90;;;;;;5012373;28;20022;-75
2022/05/10 05:19:01;;;;;;;1.63;1.52;;;19.60;61.90;;;;;;5012071;28;20026;-75
2022/05/10 05:21:27;;;;;;;1.80;1.70;;;19.60;61.90;;;;;;4995808;28;20033;-75
2022/05/10 05:23:53;;;;;;;2.35;1.50;;;19.60;61.90;;;;;;5012062;28;20018;-74
2022/05/10 05:26:18;;;;;;;1.70;1.60;;;19.60;61.90;;;;;;5012120;28;20431;-75
2022/05/10 05:28:44;;;;;;;1.73;1.63;;;19.60;61.90;;;;;;5012172;28;20476;-75
2022/05/10 05:31:11;;;;;;;1.65;1.55;;;19.60;61.90;;;;;;5012036;28;20084;-75
2022/05/10 05:33:36;;;;;;;1.75;1.65;;;19.60;62.00;;;;;;4995558;28;20140;-75
2022/05/10 05:36:02;;;;;;;2.00;1.80;;;19.60;61.90;;;;;;5013136;28;20101;-75
2022/05/10 05:38:28;;;;;;;1.70;1.60;;;19.60;61.90;;;;;;5028385;28;20041;-75
2022/05/10 05:40:53;;;;;;;1.70;1.60;;;19.50;61.80;;;;;;5012753;28;20045;-74
2022/05/10 05:43:20;;;;;;;1.50;1.40;;;19.50;61.90;;;;;;4995347;28;20052;-74
2022/05/10 05:45:45;;;;;;;1.60;1.48;;;19.50;61.90;;;;;;5011601;28;20026;-74
2022/05/10 05:48:13;;;;;;;1.60;1.50;;;19.50;61.90;;;;;;5011580;28;20052;-74
2022/05/10 05:50:38;;;;;;;1.90;1.70;;;19.50;61.90;;;;;;5013061;28;20017;-74
2022/05/10 05:53:04;;;;;;;1.80;1.70;;;19.50;61.80;;;;;;4995561;28;20554;-74
2022/05/10 05:55:30;;;;;;;1.60;1.48;;;19.50;61.90;;;;;;5012642;28;20193;-74
2022/05/10 05:57:57;;;;;;;1.63;1.52;;;19.50;61.80;;;;;;5011652;28;20076;-74
2022/05/10 06:00:24;;;;;;;1.90;1.80;;;19.50;61.80;;;;;;5011602;28;20503;-74
2022/05/10 06:02:50;;;;;;;1.75;1.65;;;19.50;61.90;;;;;;5011298;28;20117;-74
2022/05/10 06:05:16;;;;;;;1.65;1.55;;;19.50;61.90;;;;;;5012837;28;20096;-74
2022/05/10 06:07:42;;;;;;;1.40;1.30;;;19.50;61.90;;;;;;4995298;28;20105;-75
2022/05/10 06:10:08;;;;;;;1.55;1.45;;;19.50;61.80;;;;;;5011561;28;20548;-75
2022/05/10 06:12:34;;;;;;;1.80;1.70;;;19.50;61.80;;;;;;5011686;28;20026;-74
2022/05/10 06:15:00;;;;;;;1.23;1.20;;;19.50;61.80;;;;;;5013226;28;20029;-74
2022/05/10 06:17:26;;;;;;;1.40;1.30;;;19.50;61.80;;;;;;5015359;28;20110;-74
2022/05/10 06:19:51;;;;;;;1.70;1.60;;;19.50;61.80;;;;;;5016736;28;20109;-74
2022/05/10 06:22:17;;;;;;;2.30;1.60;;;19.50;61.90;;;;;;5016589;28;20037;-74
2022/05/10 06:24:43;;;;;;;1.60;1.50;;;19.50;61.80;;;;;;5015401;28;20026;-74
2022/05/10 06:27:12;;;;;;;1.70;1.60;;;19.50;61.80;;;;;;5015296;28;20068;-75
2022/05/10 06:29:38;;;;;;;1.50;1.40;;;19.50;61.80;;;;;;5016479;28;20044;-74
2022/05/10 06:32:04;;;;;;;1.80;1.70;;;19.50;61.80;;;;;;5015073;28;20030;-74
2022/05/10 06:34:29;;;;;;;1.40;1.30;;;19.50;61.80;;;;;;5016555;28;20033;-74
2022/05/10 06:36:55;;;;;;;1.42;1.33;;;19.50;61.80;;;;;;5014942;28;20025;-74
2022/05/10 06:39:21;;;;;;;1.40;1.30;;;19.50;61.80;;;;;;5016654;28;20041;-74
2022/05/10 06:41:46;;;;;;;1.75;1.65;;;19.50;61.80;;;;;;5014929;28;20034;-74
2022/05/10 06:44:12;;;;;;;1.67;1.55;;;19.50;61.80;;;;;;5015825;28;20046;-74
2022/05/10 06:46:37;;;;;;;1.60;1.50;;;19.50;61.80;;;;;;5015922;28;20018;-74
2022/05/10 06:49:04;;;;;;;1.50;1.40;;;19.50;61.80;;;;;;5016181;28;20061;-74
2022/05/10 06:51:29;;;;;;;1.55;1.45;;;19.50;61.70;;;;;;5015116;28;20508;-74
2022/05/10 06:53:55;;;;;;;1.80;1.70;;;19.50;61.80;;;;;;5014905;28;20097;-74
2022/05/10 06:56:21;;;;;;;1.90;1.80;;;19.50;61.80;;;;;;5014963;28;20084;-74
2022/05/10 06:58:47;;;;;;;1.40;1.30;;;19.50;61.80;;;;;;5014895;28;20018;-74
2022/05/10 07:01:13;;;;;;;1.65;1.55;;;19.50;61.70;;;;;;5014584;28;20032;-74
2022/05/10 07:03:49;;;;;;;1.60;1.50;;;19.50;61.80;;;;;;5014627;28;20029;-74
2022/05/10 07:06:16;;;;;;;1.63;1.52;;;19.50;61.70;;;;;;5014602;28;20014;-74
2022/05/10 07:08:42;;;;;;;1.88;1.77;;;19.50;61.80;;;;;;4998483;28;20109;-74
2022/05/10 07:11:08;;;;;;;1.70;1.60;;;19.40;61.70;;;;;;5014796;28;20125;-74
2022/05/10 07:13:34;;;;;;;1.90;1.80;;;19.40;61.70;;;;;;5014502;28;20029;-74
2022/05/10 07:15:59;;;;;;;2.22;1.70;;;19.50;61.70;;;;;;4998022;28;20026;-74
2022/05/10 07:18:25;;;;;;;1.92;1.75;;;19.50;61.70;;;;;;4998232;28;20042;-74
2022/05/10 07:20:51;;;;;;;1.63;1.52;;;19.50;61.70;;;;;;4998101;28;20029;-74
2022/05/10 07:23:21;;;;;;;1.67;1.58;;;19.40;61.80;;;;;;4998200;28;20029;-74
2022/05/10 07:25:47;;;;;;;1.65;1.55;;;19.50;61.70;;;;;;4997015;28;20120;-74
2022/05/10 07:28:12;;;;;;;1.77;1.67;;;19.40;61.70;;;;;;5014141;28;20477;-74
2022/05/10 07:30:38;;;;;;;1.60;1.50;;;19.40;61.70;;;;;;5015241;28;20022;-74
2022/05/10 07:33:04;;;;;;;1.63;1.52;;;19.50;61.70;;;;;;5014197;28;20030;-74
2022/05/10 07:38:15;;;;;;;1.75;1.65;;;19.40;61.70;;;;;;5014270;28;20033;-74
2022/05/10 07:40:41;;;;;;;2.00;1.90;;;19.40;61.80;;;;;;5013985;28;20022;-74
2022/05/10 07:43:07;;;;;;;1.83;1.67;;;19.40;61.70;;;;;;5013858;28;20088;-74
2022/05/10 07:45:33;;;;;;;1.70;1.60;;;19.40;61.80;;;;;;5013472;28;20105;-74
2022/05/10 07:47:59;;;;;;;1.55;1.45;;;19.40;61.70;;;;;;5013975;28;20148;-74
2022/05/10 07:50:25;;;;;;;1.63;1.52;;;19.40;61.70;;;;;;5013962;28;20488;-74
2022/05/10 07:52:50;;;;;;;3.08;1.50;;;19.40;61.70;;;;;;5013665;28;20041;-74
2022/05/10 07:55:18;;;;;;;1.77;1.67;;;19.40;61.70;;;;;;5013901;28;20036;-74
2022/05/10 07:57:43;;;;;;;1.50;1.40;;;19.40;61.70;;;;;;5013781;28;20061;-74
2022/05/10 08:00:12;;;;;;;1.60;1.50;;;19.40;61.70;;;;;;5013417;28;20058;-74
2022/05/10 08:02:42;;;;;;;1.98;1.80;;;19.40;61.70;;;;;;5013630;28;20164;-74
2022/05/10 08:05:09;;;;;;;1.75;1.65;;;19.40;61.70;;;;;;4997754;28;20022;-74
2022/05/10 08:07:34;;;;;;;1.73;1.63;;;19.40;61.80;;;;;;5013528;28;20022;-74
2022/05/10 08:10:00;;;;;;;2.35;1.80;;;19.40;61.70;;;;;;5014609;28;20025;-74
2022/05/10 08:12:26;;;;;;;1.67;1.58;;;19.40;61.70;;;;;;5013647;28;20116;-74
2022/05/10 08:14:51;;;;;;;1.90;1.65;;;19.40;61.70;;;;;;5014310;28;20088;-74
2022/05/10 08:17:17;;;;;;;2.08;1.77;;;19.40;61.70;;;;;;5013166;28;20074;-74
2022/05/10 08:19:45;;;;;;;1.58;1.48;;;19.40;61.70;;;;;;5014444;28;20037;-74
2022/05/10 08:22:10;;;;;;;1.73;1.63;;;19.40;61.70;;;;;;5014455;28;20033;-74
2022/05/10 08:24:36;;;;;;;1.60;1.50;;;19.40;61.70;;;;;;4997095;28;20026;-74
2022/05/10 08:27:02;;;;;;;1.63;1.40;;;19.40;61.70;;;;;;5014176;28;20026;-74
2022/05/10 08:29:27;;;;;;;1.70;1.60;;;19.40;62.70;;;;;;5012855;28;20396;-74
2022/05/10 08:31:53;;;;;;;1.58;1.48;;;19.40;61.70;;;;;;5014333;28;20026;-74
2022/05/10 08:34:19;;;;;;;1.88;1.77;;;19.40;61.80;;;;;;5014199;28;20022;-74
2022/05/10 08:36:46;;;;;;;1.60;1.50;;;19.40;61.70;;;;;;5014061;28;20381;-74
2022/05/10 08:39:13;;;;;;;1.60;1.50;;;19.40;61.70;;;;;;5012763;28;20018;-74
2022/05/10 08:41:43;;;;;;;1.67;1.58;;;19.40;61.70;;;;;;5014171;28;20029;-74
2022/05/10 08:44:16;;;;;;;1.73;1.58;;;19.40;61.70;;;;;;5012326;28;20029;-74
2022/05/10 08:46:44;;;;;;;1.60;1.50;;;19.50;61.70;;;;;;4996654;28;20026;-74
2022/05/10 08:49:15;;;;;;;1.50;1.35;;;19.40;61.80;;;;;;4996597;28;20468;-74
2022/05/10 08:51:41;;;;;;;1.65;1.50;;;19.40;61.70;;;;;;5012752;28;20025;-74
2022/05/10 08:54:07;;;;;;;1.90;1.50;;;19.40;61.70;;;;;;4996410;28;20484;-74
2022/05/10 08:56:46;;;;;;;1.77;1.67;;;19.40;61.70;;;;;;4996155;28;20500;-74
2022/05/10 08:59:40;;;;;;;1.40;1.30;;;19.40;61.70;;;;;;4997760;28;20045;-74
2022/05/10 09:02:27;;;;;;;1.70;1.60;;;19.40;61.50;;;;;;4991914;28;20046;-74
2022/05/10 09:05:27;;;;;;;1.60;1.50;;;19.40;61.60;;;;;;4976889;28;20121;-74
2022/05/10 09:08:11;;;;;;;1.50;1.40;;;19.40;61.60;;;;;;4978092;28;20108;-74
2022/05/10 09:10:41;;;;;;;1.42;1.35;;;19.40;61.80;;;;;;4992007;28;20031;-74
2022/05/10 09:13:10;;;;;;;1.58;1.48;;;19.40;61.80;;;;;;4959971;28;20049;-74
2022/05/10 09:15:52;;;;;;;1.45;1.35;;;19.40;61.80;;;;;;4975650;28;20033;-74
2022/05/10 09:18:19;;;;;;;2.40;1.52;;;19.40;61.70;;;;;;4975576;28;20034;-74
2022/05/10 09:21:09;;;;;;;1.33;1.23;;;19.40;61.80;;;;;;4975654;28;20026;-74
2022/05/10 09:23:55;;;;;;;2.20;1.42;;;19.40;62.70;;;;;;4991379;28;20057;-74
2022/05/10 09:26:23;;;;;;;2.25;1.58;;;19.40;61.70;;;;;;4975540;28;20061;-74
2022/05/10 09:29:12;;;;;;;1.50;1.40;;;19.30;61.70;;;;;;4959932;28;20039;-74
2022/05/10 09:37:31;;;;;;;1.60;1.50;;;19.40;61.90;;;;;;4991346;28;20093;-74
2022/05/10 09:39:57;;;;;;;1.30;1.20;;;19.40;61.80;;;;;;4995620;28;20048;-74
2022/05/10 09:42:30;;;;;;;1.30;1.15;;;19.30;61.80;;;;;;5012903;28;20112;-74
2022/05/10 09:45:23;;;;;;;1.50;1.40;;;19.40;61.80;;;;;;4996012;28;20042;-74
2022/05/10 09:48:09;;;;;;;2.35;1.50;;;19.40;61.70;;;;;;5006508;28;20034;-74
2022/05/10 09:50:42;;;;;;;1.50;1.40;;;19.40;61.80;;;;;;4996028;28;20033;-74
2022/05/10 09:53:30;;;;;;;1.30;1.20;;;19.40;61.80;;;;;;5011803;28;20104;-74
2022/05/10 09:56:02;;;;;;;1.42;1.33;;;19.40;61.70;;;;;;5011613;28;20021;-74
2022/05/10 09:58:31;;;;;;;;;;;19.40;61.80;;;;;;5013417;28;20060;-74
2022/05/10 10:00:59;;;;;;;1.33;1.23;;;19.40;61.80;;;;;;5012845;28;19912;-74
2022/05/10 10:03:29;;;;;;;1.30;1.20;;;19.30;62.00;;;;;;4995902;28;20022;-74
2022/05/10 10:06:00;;;;;;;1.23;1.13;;;19.30;61.80;;;;;;5011784;28;20022;-74
2022/05/10 10:08:37;;;;;;;1.55;1.45;;;19.30;61.90;;;;;;4995752;28;20033;-74
2022/05/10 10:11:21;;;;;;;1.20;1.10;;;19.40;61.90;;;;;;5011297;28;20096;-74
2022/05/10 10:13:51;;;;;;;1.33;1.23;;;19.30;61.80;;;;;;5012833;28;20029;-74
2022/05/10 10:16:27;;;;;;;2.95;1.30;;;19.40;61.80;;;;;;4995355;28;20105;-74
2022/05/10 10:19:18;;;;;;;1.30;1.20;;;19.40;61.80;;;;;;5011740;28;20417;-74
2022/05/10 10:21:49;;;;;;;1.20;1.10;;;19.40;61.80;;;;;;4990765;28;20046;-74
2022/05/10 10:24:34;;;;;;;2.08;1.20;;;19.40;61.80;;;;;;4958163;28;20448;-74
2022/05/10 10:27:02;;;;;;;1.20;1.10;;;19.40;61.80;;;;;;4974473;28;20035;-74
2022/05/10 10:29:56;;;;;;;1.25;1.10;;;19.40;61.80;;;;;;4975005;28;20015;-74
2022/05/10 10:32:45;;;;;;;1.70;1.40;;;19.40;61.70;;;;;;4974595;28;20047;-74
2022/05/10 10:35:39;;;;;;;2.00;1.20;;;19.40;61.80;;;;;;4960583;28;20022;-74
2022/05/10 10:38:55;;;;;;;1.27;0.93;;;19.40;61.80;;;;;;4974344;28;20030;-74
2022/05/10 10:41:49;;;;;;;1.13;1.05;;;19.40;61.70;;;;;;4950650;28;20045;-74
2022/05/10 10:44:16;;;;;;;;;;;19.40;61.80;;;;;;4990685;28;20045;-74
2022/05/10 10:47:15;;;;;;;1.60;1.00;;;19.30;61.80;;;;;;4974559;28;19965;-74
2022/05/10 10:50:19;;;;;;;1.48;1.00;;;19.30;62.00;;;;;;4990721;28;20085;-74
2022/05/10 10:52:44;;;;;;;1.23;1.20;;;19.30;61.90;;;;;;4960945;28;20074;-74
2022/05/10 10:55:10;;;;;;;1.25;1.17;;;19.30;62.10;;;;;;4990515;28;20058;-74
2022/05/10 10:58:03;;;;;;;1.80;1.10;;;19.30;62.00;;;;;;4958652;28;20034;-74
2022/05/10 11:00:34;;;;;;;1.15;1.10;;;19.40;61.80;;;;;;5013157;28;20038;-74
2022/05/10 11:03:23;;;;;;;1.00;1.00;;;19.40;61.90;;;;;;4998479;28;20065;-74
2022/05/10 11:06:14;;;;;;;1.13;1.13;;;19.40;61.80;;;;;;4994051;28;20057;-74
2022/05/10 11:08:46;;;;;;;1.52;1.15;;;19.40;61.90;;;;;;4979948;28;20574;-74
2022/05/10 11:11:21;;;;;;;1.27;1.17;;;19.40;61.90;;;;;;4994232;28;20113;-74
2022/05/10 11:13:49;;;;;;;1.10;1.10;;;19.40;61.80;;;;;;4977712;28;20031;-74
2022/05/10 11:16:34;;;;;;;1.45;1.23;;;19.40;61.90;;;;;;4993799;28;20050;-74
2022/05/10 11:19:20;;;;;;;1.50;1.13;;;19.40;61.80;;;;;;4977699;28;20531;-74
2022/05/10 11:21:49;;;;;;;1.02;1.02;;;19.40;61.90;;;;;;4993802;28;20034;-74
2022/05/10 11:24:35;;;;;;;1.10;1.10;;;19.40;61.90;;;;;;4977530;28;20089;-74
2022/05/10 11:27:03;;;;;;;0.88;0.88;;;19.40;61.80;;;;;;4977518;28;20104;-74
2022/05/10 11:29:35;;;;;;;1.20;1.10;;;19.40;61.80;;;;;;4993765;28;20118;-74
2022/05/10 11:32:06;;;;;;;1.98;1.20;;;19.40;61.80;;;;;;4993850;28;20027;-74
2022/05/10 11:34:42;;;;;;;1.40;1.00;;;19.40;61.80;;;;;;4993852;28;20074;-74
2022/05/10 11:37:11;;;;;;;1.38;1.10;;;19.50;61.90;;;;;;4977975;28;20049;-74
2022/05/10 11:40:00;;;;;;;1.00;1.00;;;19.50;61.90;;;;;;4977554;28;20554;-74
2022/05/10 11:42:25;;;;;;;1.05;1.00;;;19.50;61.90;;;;;;4987032;28;20045;-74
2022/05/10 11:45:19;;;;;;;1.20;1.10;;;19.40;61.80;;;;;;5014749;28;20416;-74
2022/05/10 11:47:44;;;;;;;1.10;1.00;;;19.50;61.90;;;;;;5015157;28;20025;-74
2022/05/10 11:50:10;;;;;;;1.10;1.10;;;19.40;61.90;;;;;;5014806;28;20022;-74
2022/05/10 11:52:58;;;;;;;1.23;1.00;;;19.50;61.90;;;;;;5014926;28;20029;-74
2022/05/10 11:55:36;;;;;;;1.02;1.02;;;19.50;61.90;;;;;;5013792;28;20026;-74
2022/05/10 11:58:04;;;;;;;1.02;0.93;;;19.50;61.90;;;;;;5013884;28;20034;-74
2022/05/10 12:00:33;;;;;;;1.00;1.00;;;19.50;62.00;;;;;;4997723;28;20468;-74
2022/05/10 12:03:05;;;;;;;1.60;0.90;;;19.50;62.00;;;;;;5014622;28;20091;-74
2022/05/10 12:05:39;;;;;;;1.45;1.00;;;19.50;61.90;;;;;;5013530;28;20069;-74
2022/05/10 12:08:25;;;;;;;1.00;1.00;;;19.50;61.90;;;;;;5013547;28;20022;-74
2022/05/10 12:10:51;;;;;;;1.02;1.00;;;19.50;61.90;;;;;;5006431;28;20038;-74
2022/05/10 12:22:05;;;;;;;1.00;1.00;;;19.50;62.00;;;;;;5000315;28;20056;-74
2022/05/10 12:24:31;;;;;;;1.20;1.10;;;19.50;62.10;;;;;;5013400;28;20045;-74
2022/05/10 12:27:12;;;;;;;0.80;0.80;;;19.50;62.10;;;;;;5013136;28;20472;-74
2022/05/10 12:29:38;;;;;;;0.95;0.95;;;19.50;62.10;;;;;;5013347;28;20033;-74
2022/05/10 12:32:10;;;;;;;0.80;0.80;;;19.50;62.00;;;;;;5014313;28;20034;-74
2022/05/10 12:35:02;;;;;;;1.08;1.00;;;19.50;62.00;;;;;;5014181;28;20021;-74
2022/05/10 12:37:28;;;;;;;0.85;0.85;;;19.50;61.90;;;;;;5013042;28;20056;-74
2022/05/10 12:40:09;;;;;;;1.35;0.90;;;19.50;62.10;;;;;;5014066;28;20488;-74
2022/05/10 12:42:53;;;;;;;1.10;0.98;;;19.50;62.00;;;;;;5013910;28;20033;-74
2022/05/10 12:45:19;;;;;;;1.15;1.02;;;19.50;62.10;;;;;;5013887;28;20061;-74
2022/05/10 12:48:05;;;;;;;2.03;1.10;;;19.50;62.10;;;;;;5014059;28;20109;-74
2022/05/10 12:51:25;;;;;;;1.40;0.73;;;19.60;62.00;;;;;;5012526;28;20053;-74
2022/05/10 12:53:51;;;;;;;0.90;0.90;;;19.60;62.00;;;;;;4992164;28;20034;-74
2022/05/10 12:56:24;;;;;;;1.10;1.00;;;19.50;62.20;;;;;;4992122;28;20039;-74
2022/05/10 12:58:57;;;;;;;0.93;0.90;;;19.50;62.10;;;;;;4959886;28;20034;-74
2022/05/10 13:01:24;;;;;;;1.27;1.17;;;19.50;62.10;;;;;;4960468;28;20061;-74
2022/05/10 13:03:53;;;;;;;1.00;1.00;;;19.50;62.10;;;;;;4959603;28;20563;-74
2022/05/10 13:06:48;;;;;;;0.98;0.80;;;19.50;62.10;;;;;;4959867;28;20491;-74
2022/05/10 13:09:29;;;;;;;2.08;0.90;;;19.60;62.00;;;;;;4976039;28;20045;-74
2022/05/10 13:12:13;;;;;;;1.17;1.08;;;19.60;62.10;;;;;;4976997;28;20480;-74
2022/05/10 13:14:44;;;;;;;0.95;0.90;;;19.60;62.10;;;;;;4959853;28;20034;-74
2022/05/10 13:17:18;;;;;;;0.80;0.80;;;19.50;62.20;;;;;;4959686;28;20035;-74
2022/05/10 13:19:44;;;;;;;1.15;0.90;;;19.60;62.20;;;;;;4991763;28;20070;-74
2022/05/10 13:22:14;;;;;;;0.85;0.85;;;19.50;62.10;;;;;;4975263;28;20583;-74
2022/05/10 13:24:43;;;;;;;0.98;0.90;;;19.60;62.20;;;;;;4990898;28;20042;-74
2022/05/10 13:27:08;;;;;;;0.80;0.80;;;19.50;62.10;;;;;;4965037;28;20038;-74
2022/05/10 13:29:45;;;;;;;1.10;1.00;;;19.60;62.10;;;;;;4995690;28;20040;-74
2022/05/10 13:32:12;;;;;;;0.80;0.80;;;19.60;62.10;;;;;;4995540;28;20448;-74
2022/05/10 13:34:49;;;;;;;0.90;0.85;;;19.60;62.10;;;;;;5012107;28;20030;-74
2022/05/10 13:37:23;;;;;;;1.67;1.00;;;19.60;62.10;;;;;;4995896;28;20026;-74